createdAt,value
2018-05-26T00:02:24.998Z,99.60
2018-05-26T00:05:28.071Z,99.60
2018-05-26T00:08:31.185Z,99.80
2018-05-26T00:11:34.898Z,99.90
2018-05-26T00:14:38.026Z,99.90
2018-05-26T00:17:41.066Z,99.90
2018-05-26T00:20:44.157Z,99.90
2018-05-26T00:23:47.214Z,99.90
2018-05-26T00:26:50.951Z,99.90
2018-05-26T00:29:54.037Z,99.90
2018-05-26T00:32:57.109Z,99.90
2018-05-26T00:36:00.215Z,99.90
2018-05-26T00:39:03.319Z,99.90
2018-05-26T00:42:06.387Z,99.90
2018-05-26T00:45:09.487Z,99.90
2018-05-26T00:48:12.545Z,99.90
2018-05-26T00:51:15.641Z,99.90
2018-05-26T00:54:18.751Z,99.90
2018-05-26T00:57:21.852Z,99.90
2018-05-26T01:00:25.263Z,99.90
2018-05-26T01:03:29.109Z,99.90
2018-05-26T01:06:32.939Z,99.90
2018-05-26T01:09:36.059Z,99.90
2018-05-26T01:12:39.194Z,99.90
2018-05-26T01:15:42.255Z,99.90
2018-05-26T01:18:45.365Z,99.90
2018-05-26T01:21:48.432Z,99.90
2018-05-26T01:24:51.898Z,99.90
2018-05-26T01:27:55.075Z,99.90
2018-05-26T01:30:58.240Z,99.90
2018-05-26T01:34:01.473Z,99.90
2018-05-26T01:37:04.569Z,99.90
2018-05-26T01:40:07.758Z,99.90
2018-05-26T01:43:10.818Z,99.90
2018-05-26T01:46:14.255Z,99.90
2018-05-26T01:49:17.359Z,99.90
2018-05-26T01:52:21.214Z,99.90
2018-05-26T01:55:24.330Z,99.90
2018-05-26T01:58:27.422Z,99.90
2018-05-26T02:01:30.510Z,99.90
2018-05-26T02:04:33.970Z,99.90
2018-05-26T02:07:37.781Z,99.90
2018-05-26T02:10:40.891Z,99.90
2018-05-26T02:13:44.137Z,99.90
2018-05-26T02:16:47.310Z,99.90
2018-05-26T02:19:50.614Z,99.90
2018-05-26T02:22:53.719Z,99.90
2018-05-26T02:25:56.790Z,99.90
2018-05-26T02:28:59.880Z,99.90
2018-05-26T02:32:03.059Z,99.90
2018-05-26T02:35:06.222Z,99.90
2018-05-26T02:38:09.383Z,99.90
2018-05-26T02:41:12.438Z,99.90
2018-05-26T02:44:15.502Z,99.90
2018-05-26T02:47:18.604Z,99.90
2018-05-26T02:50:21.662Z,99.90
2018-05-26T02:53:24.756Z,99.90
2018-05-26T02:56:27.824Z,99.90
2018-05-26T02:59:31.840Z,99.90
2018-05-26T03:02:35.675Z,99.90
2018-05-26T03:05:44.412Z,99.90
2018-05-26T03:08:53.293Z,99.90
2018-05-26T03:12:02.139Z,99.90
2018-05-26T03:15:04.720Z,99.90
2018-05-26T03:18:08.391Z,99.90
2018-05-26T03:21:12.251Z,99.90
2018-05-26T03:24:16.149Z,99.90
2018-05-26T03:27:19.460Z,99.90
2018-05-26T03:30:22.548Z,99.90
2018-05-26T03:33:25.651Z,99.90
2018-05-26T03:36:28.839Z,99.90
2018-05-26T03:39:31.912Z,99.90
2018-05-26T03:42:35.108Z,99.90
2018-05-26T03:45:38.189Z,99.90
2018-05-26T03:48:41.287Z,99.90
2018-05-26T03:51:44.370Z,99.90
2018-05-26T03:58:34.683Z,97.80
2018-05-26T04:01:37.763Z,97.80
2018-05-26T04:04:40.876Z,97.20
2018-05-26T04:07:45.096Z,96.90
2018-05-26T04:10:48.271Z,96.70
2018-05-26T04:13:51.455Z,96.50
2018-05-26T04:16:54.577Z,96.10
2018-05-26T04:19:57.666Z,96.00
2018-05-26T04:23:00.722Z,95.10
2018-05-26T04:26:03.928Z,95.70
2018-05-26T04:29:06.985Z,96.30
2018-05-26T04:32:10.110Z,96.80
2018-05-26T04:35:14.010Z,95.60
2018-05-26T04:38:17.103Z,95.50
2018-05-26T04:41:20.199Z,94.70
2018-05-26T04:44:23.399Z,95.00
2018-05-26T04:47:26.457Z,95.30
2018-05-26T04:50:29.592Z,95.70
2018-05-26T04:53:32.707Z,95.50
2018-05-26T04:56:36.458Z,94.00
2018-05-26T04:59:39.554Z,95.20
2018-05-26T05:02:42.634Z,95.50
2018-05-26T05:05:45.744Z,95.10
2018-05-26T05:08:48.924Z,95.90
2018-05-26T05:11:52.007Z,96.00
2018-05-26T05:14:55.109Z,95.80
2018-05-26T05:17:58.185Z,95.30
2018-05-26T05:21:01.287Z,95.00
2018-05-26T05:24:04.361Z,94.60
2018-05-26T05:27:07.468Z,93.40
2018-05-26T05:30:10.548Z,92.50
2018-05-26T05:33:13.651Z,92.20
2018-05-26T05:36:16.731Z,91.80
2018-05-26T05:39:19.857Z,92.00
2018-05-26T05:42:23.725Z,93.20
2018-05-26T05:45:26.923Z,92.90
2018-05-26T05:48:30.003Z,92.20
2018-05-26T05:51:33.253Z,93.70
2018-05-26T05:54:36.390Z,93.00
2018-05-26T05:57:39.488Z,92.10
2018-05-26T06:00:42.559Z,92.30
2018-05-26T06:03:45.652Z,92.50
2018-05-26T06:06:48.732Z,92.70
2018-05-26T06:09:51.828Z,91.30
2018-05-26T06:12:54.908Z,91.80
2018-05-26T06:15:58.008Z,90.90
2018-05-26T06:19:01.075Z,91.30
2018-05-26T06:22:04.159Z,90.00
2018-05-26T06:25:07.259Z,90.20
2018-05-26T06:28:11.092Z,88.60
2018-05-26T06:31:14.195Z,88.50
2018-05-26T06:34:17.289Z,87.40
2018-05-26T06:37:20.360Z,86.00
2018-05-26T06:40:23.442Z,89.60
2018-05-26T06:43:26.519Z,88.10
2018-05-26T06:46:29.613Z,87.70
2018-05-26T06:49:32.685Z,87.60
2018-05-26T06:52:35.774Z,87.20
2018-05-26T06:55:38.863Z,85.70
2018-05-26T06:58:41.988Z,87.00
2018-05-26T07:01:45.788Z,86.80
2018-05-26T07:04:48.866Z,86.80
2018-05-26T07:07:51.944Z,90.00
2018-05-26T07:10:55.043Z,89.20
2018-05-26T07:13:58.113Z,86.90
2018-05-26T07:17:01.971Z,84.90
2018-05-26T07:20:05.044Z,84.80
2018-05-26T07:23:08.138Z,82.50
2018-05-26T07:26:11.209Z,81.40
2018-05-26T07:29:14.301Z,81.20
2018-05-26T07:32:17.377Z,81.20
2018-05-26T07:35:20.470Z,79.40
2018-05-26T07:38:23.552Z,77.80
2018-05-26T07:41:27.410Z,78.40
2018-05-26T07:44:30.471Z,78.40
2018-05-26T07:47:33.697Z,76.00
2018-05-26T07:50:36.761Z,78.60
2018-05-26T07:53:39.857Z,76.00
2018-05-26T07:56:42.933Z,76.00
2018-05-26T07:59:46.031Z,73.70
2018-05-26T08:02:49.099Z,76.00
2018-05-26T08:05:52.192Z,75.80
2018-05-26T08:08:55.258Z,74.70
2018-05-26T08:11:59.109Z,75.30
2018-05-26T08:15:02.198Z,75.20
2018-05-26T08:18:05.277Z,74.70
2018-05-26T08:21:08.359Z,75.00
2018-05-26T08:24:11.438Z,73.10
2018-05-26T08:27:14.523Z,73.90
2018-05-26T08:30:18.371Z,71.50
2018-05-26T08:33:21.437Z,71.40
2018-05-26T08:36:24.526Z,72.00
2018-05-26T08:39:27.596Z,72.40
2018-05-26T08:42:30.699Z,71.90
2018-05-26T08:45:33.775Z,70.30
2018-05-26T08:48:36.868Z,68.30
2018-05-26T08:51:39.950Z,70.60
2018-05-26T08:54:43.816Z,72.30
2018-05-26T08:57:46.881Z,72.30
2018-05-26T09:00:49.970Z,71.30
2018-05-26T09:03:53.122Z,70.30
2018-05-26T09:06:56.182Z,68.50
2018-05-26T09:10:00.771Z,70.60
2018-05-26T09:13:03.883Z,70.50
2018-05-26T09:16:06.973Z,70.40
2018-05-26T09:19:10.158Z,70.20
2018-05-26T09:22:13.259Z,71.10
2018-05-26T09:25:16.464Z,71.50
2018-05-26T09:28:19.503Z,71.80
2018-05-26T09:31:22.633Z,72.20
2018-05-26T09:34:25.672Z,72.50
2018-05-26T09:37:28.763Z,72.70
2018-05-26T09:40:31.829Z,71.10
2018-05-26T09:43:35.749Z,71.60
2018-05-26T09:46:38.759Z,71.60
2018-05-26T09:49:41.841Z,72.50
2018-05-26T09:52:44.948Z,72.70
2018-05-26T09:55:48.101Z,73.40
2018-05-26T09:58:51.142Z,71.90
2018-05-26T10:01:54.445Z,70.90
2018-05-26T10:04:58.277Z,70.80
2018-05-26T10:08:02.147Z,71.30
2018-05-26T10:11:05.213Z,71.90
2018-05-26T10:14:08.385Z,71.10
2018-05-26T10:17:11.469Z,70.70
2018-05-26T10:20:14.553Z,71.10
2018-05-26T10:23:17.595Z,69.90
2018-05-26T10:26:20.858Z,69.40
2018-05-26T10:29:23.895Z,69.90
2018-05-26T10:32:27.019Z,70.60
2018-05-26T10:35:30.098Z,70.60
2018-05-26T10:38:33.156Z,69.20
2018-05-26T10:41:36.231Z,69.80
2018-05-26T10:44:39.322Z,68.80
2018-05-26T10:47:42.437Z,67.60
2018-05-26T10:50:45.519Z,66.00
2018-05-26T10:53:48.591Z,65.00
2018-05-26T10:56:51.683Z,65.70
2018-05-26T10:59:54.826Z,67.90
2018-05-26T11:02:57.906Z,67.50
2018-05-26T11:06:01.831Z,68.20
2018-05-26T11:09:04.919Z,68.10
2018-05-26T11:12:08.738Z,68.00
2018-05-26T11:15:11.869Z,68.00
2018-05-26T11:18:14.922Z,67.70
2018-05-26T11:21:18.054Z,67.40
2018-05-26T11:24:21.217Z,69.60
2018-05-26T11:27:24.221Z,66.90
2018-05-26T11:30:27.289Z,68.40
2018-05-26T11:33:30.386Z,68.80
2018-05-26T11:36:33.453Z,69.50
2018-05-26T11:39:36.542Z,69.80
2018-05-26T11:42:39.621Z,70.10
2018-05-26T11:45:43.476Z,69.60
2018-05-26T11:48:46.571Z,69.60
2018-05-26T11:51:49.654Z,69.50
2018-05-26T11:54:53.490Z,69.00
2018-05-26T11:57:56.602Z,69.00
2018-05-26T12:01:00.435Z,66.70
2018-05-26T12:04:03.530Z,66.50
2018-05-26T12:07:06.668Z,66.90
2018-05-26T12:10:09.801Z,65.10
2018-05-26T12:13:12.882Z,65.60
2018-05-26T12:16:16.728Z,59.80
2018-05-26T12:19:19.835Z,59.80
2018-05-26T12:22:23.828Z,61.30
2018-05-26T12:25:27.685Z,61.40
2018-05-26T12:28:31.528Z,62.80
2018-05-26T12:31:34.609Z,62.80
2018-05-26T12:34:37.693Z,62.70
2018-05-26T12:37:40.768Z,64.90
2018-05-26T12:40:43.858Z,65.90
2018-05-26T12:43:46.935Z,64.60
2018-05-26T12:46:50.838Z,64.90
2018-05-26T12:49:54.675Z,63.30
2018-05-26T12:52:57.770Z,63.20
2018-05-26T12:56:00.843Z,63.40
2018-05-26T12:59:03.952Z,64.20
2018-05-26T13:02:07.020Z,64.50
2018-05-26T13:05:10.121Z,64.20
2018-05-26T13:08:13.184Z,63.90
2018-05-26T13:11:17.031Z,64.50
2018-05-26T13:14:20.109Z,64.40
2018-05-26T13:17:23.205Z,64.80
2018-05-26T13:20:26.272Z,65.10
2018-05-26T13:23:29.367Z,64.90
2018-05-26T13:26:32.446Z,67.00
2018-05-26T13:29:36.326Z,63.30
2018-05-26T13:32:39.390Z,63.20
2018-05-26T13:35:42.473Z,62.00
2018-05-26T13:38:45.623Z,62.70
2018-05-26T13:41:48.686Z,64.50
2018-05-26T13:44:51.742Z,64.10
2018-05-26T13:47:54.878Z,63.80
2018-05-26T13:50:57.932Z,63.30
2018-05-26T13:54:01.089Z,62.50
2018-05-26T13:57:04.108Z,62.10
2018-05-26T14:00:07.203Z,59.00
2018-05-26T14:03:10.301Z,59.70
2018-05-26T14:06:13.427Z,59.90
2018-05-26T14:09:16.471Z,60.60
2018-05-26T14:12:19.564Z,60.10
2018-05-26T14:15:23.408Z,66.80
2018-05-26T14:18:27.267Z,72.10
2018-05-26T14:21:30.342Z,72.10
2018-05-26T14:24:33.466Z,75.80
2018-05-26T14:27:36.555Z,78.10
2018-05-26T14:30:39.655Z,79.80
2018-05-26T14:33:42.715Z,81.40
2018-05-26T14:36:45.820Z,82.30
2018-05-26T14:39:48.897Z,83.40
2018-05-26T14:42:52.002Z,83.40
2018-05-26T14:45:55.187Z,83.90
2018-05-26T14:48:58.278Z,83.70
2018-05-26T14:52:01.371Z,84.10
2018-05-26T14:55:04.458Z,84.40
2018-05-26T14:58:07.589Z,85.10
2018-05-26T15:01:10.778Z,84.40
2018-05-26T15:04:14.620Z,84.90
2018-05-26T15:07:17.808Z,84.80
2018-05-26T15:10:20.879Z,85.50
2018-05-26T15:13:23.984Z,84.30
2018-05-26T15:16:27.839Z,82.70
2018-05-26T15:19:30.913Z,82.70
2018-05-26T15:22:33.993Z,82.70
2018-05-26T15:25:37.091Z,82.60
2018-05-26T15:28:40.183Z,81.90
2018-05-26T15:31:43.267Z,82.20
2018-05-26T15:34:47.119Z,82.80
2018-05-26T15:37:50.988Z,82.20
2018-05-26T15:40:54.064Z,82.10
2018-05-26T15:43:57.138Z,82.50
2018-05-26T15:47:00.851Z,82.00
2018-05-26T15:50:03.959Z,82.30
2018-05-26T15:53:07.031Z,82.30
2018-05-26T15:56:10.112Z,81.40
2018-05-26T15:59:13.177Z,80.80
2018-05-26T16:02:16.296Z,80.30
2018-05-26T16:05:19.351Z,80.30
2018-05-26T16:08:23.259Z,81.80
2018-05-26T16:11:26.388Z,81.60
2018-05-26T16:14:29.460Z,82.50
2018-05-26T16:17:32.538Z,83.40
2018-05-26T16:20:36.409Z,84.80
2018-05-26T16:23:39.481Z,84.70
2018-05-26T16:26:42.613Z,85.10
2018-05-26T16:29:46.435Z,84.90
2018-05-26T16:32:49.613Z,84.90
2018-05-26T16:35:52.707Z,85.20
2018-05-26T16:38:56.558Z,85.10
2018-05-26T16:41:59.700Z,85.10
2018-05-26T16:45:02.797Z,84.70
2018-05-26T16:48:05.858Z,84.10
2018-05-26T16:51:08.952Z,84.60
2018-05-26T16:54:12.015Z,84.20
2018-05-26T16:57:15.148Z,84.70
2018-05-26T17:00:18.376Z,85.30
2018-05-26T17:03:22.239Z,85.10
2018-05-26T17:06:26.084Z,85.10
2018-05-26T17:09:29.297Z,85.10
2018-05-26T17:12:32.307Z,85.50
2018-05-26T17:15:35.622Z,85.50
2018-05-26T17:18:38.687Z,85.40
2018-05-26T17:21:41.810Z,85.40
2018-05-26T17:24:44.918Z,84.80
2018-05-26T17:27:48.018Z,84.30
2018-05-26T17:30:51.109Z,84.80
2018-05-26T17:33:54.209Z,85.00
2018-05-26T17:36:57.268Z,85.30
2018-05-26T17:40:00.360Z,86.00
2018-05-26T17:43:03.433Z,86.70
2018-05-26T17:46:07.296Z,87.10
2018-05-26T17:49:10.355Z,87.10
2018-05-26T17:52:13.496Z,88.10
2018-05-26T17:55:16.719Z,87.80
2018-05-26T17:58:19.779Z,88.20
2018-05-26T18:01:22.837Z,88.50
2018-05-26T18:04:25.948Z,89.70
2018-05-26T18:07:29.020Z,90.10
2018-05-26T18:10:32.112Z,89.90
2018-05-26T18:13:35.331Z,89.00
2018-05-26T18:16:38.423Z,90.00
2018-05-26T18:19:41.498Z,90.00
2018-05-26T18:22:44.600Z,90.30
2018-05-26T18:25:47.695Z,90.40
2018-05-26T18:28:50.786Z,90.50
2018-05-26T18:31:53.843Z,90.50
2018-05-26T18:34:56.971Z,90.60
2018-05-26T18:38:00.038Z,90.80
2018-05-26T18:41:03.130Z,90.60
2018-05-26T18:44:06.195Z,91.00
2018-05-26T18:47:09.279Z,91.00
2018-05-26T18:50:12.436Z,91.30
2018-05-26T18:53:15.486Z,91.70
2018-05-26T18:56:18.619Z,92.10
2018-05-26T18:59:21.710Z,92.40
2018-05-26T19:02:25.534Z,93.10
2018-05-26T19:05:28.629Z,93.00
2018-05-26T19:08:31.793Z,93.30
2018-05-26T19:11:34.860Z,93.90
2018-05-26T19:14:37.932Z,94.30
2018-05-26T19:17:41.027Z,94.90
2018-05-26T19:20:44.097Z,95.10
2018-05-26T19:23:47.195Z,95.60
2018-05-26T19:26:50.275Z,96.20
2018-05-26T19:29:53.350Z,96.50
2018-05-26T19:32:56.420Z,96.80
2018-05-26T19:35:59.550Z,97.30
2018-05-26T19:39:02.630Z,97.50
2018-05-26T19:42:05.750Z,97.80
2018-05-26T19:45:08.819Z,97.90
2018-05-26T19:48:11.908Z,98.20
2018-05-26T19:51:14.977Z,98.30
2018-05-26T19:54:18.071Z,98.40
2018-05-26T19:57:21.143Z,98.70
2018-05-26T20:00:24.236Z,98.90
2018-05-26T20:03:27.311Z,99.10
2018-05-26T20:06:30.396Z,99.20
2018-05-26T20:09:34.334Z,99.60
2018-05-26T20:12:37.615Z,99.60
2018-05-26T20:15:40.784Z,99.70
2018-05-26T20:18:43.855Z,99.80
2018-05-26T20:21:46.967Z,99.90
2018-05-26T20:24:50.034Z,99.90
2018-05-26T20:27:53.094Z,99.90
2018-05-26T20:30:56.178Z,99.90
2018-05-26T20:33:59.252Z,99.90
2018-05-26T20:37:02.348Z,99.90
2018-05-26T20:40:05.419Z,99.90
2018-05-26T20:43:08.518Z,99.90
2018-05-26T20:46:11.585Z,99.90
2018-05-26T20:49:15.450Z,99.90
2018-05-26T20:52:18.524Z,99.90
2018-05-26T20:55:21.610Z,99.90
2018-05-26T20:58:24.691Z,99.90
2018-05-26T21:01:27.782Z,99.90
2018-05-26T21:04:30.923Z,99.90
2018-05-26T21:07:34.094Z,99.90
2018-05-26T21:10:37.161Z,99.90
2018-05-26T21:13:40.256Z,99.90
2018-05-26T21:16:43.336Z,99.90
2018-05-26T21:19:46.423Z,99.90
2018-05-26T21:22:49.487Z,99.90
2018-05-26T21:25:52.567Z,99.90
2018-05-26T21:28:56.403Z,99.90
2018-05-26T21:31:59.489Z,99.90
2018-05-26T21:35:02.563Z,99.90
2018-05-26T21:38:05.660Z,99.90
2018-05-26T21:41:08.741Z,99.90
2018-05-26T21:44:11.926Z,99.90
2018-05-26T21:47:15.015Z,99.90
2018-05-26T21:50:18.857Z,99.90
2018-05-26T21:53:21.929Z,99.90
2018-05-26T21:56:25.024Z,99.90
2018-05-26T21:59:28.103Z,99.90
2018-05-26T22:02:31.207Z,99.90
2018-05-26T22:05:34.289Z,99.90
2018-05-26T22:08:37.390Z,99.90
2018-05-26T22:11:40.515Z,99.90
2018-05-26T22:14:43.635Z,99.90
2018-05-26T22:17:46.686Z,99.90
2018-05-26T22:20:49.792Z,99.90
2018-05-26T22:23:52.869Z,99.90
2018-05-26T22:26:55.963Z,99.90
2018-05-26T22:29:59.082Z,99.90
2018-05-26T22:33:02.151Z,99.90
2018-05-26T22:36:05.229Z,99.90
2018-05-26T22:39:08.327Z,99.90
2018-05-26T22:42:11.412Z,99.90
2018-05-26T22:45:14.512Z,99.90
2018-05-26T22:48:17.583Z,99.90
2018-05-26T22:51:20.679Z,99.90
2018-05-26T22:54:23.750Z,99.90
2018-05-26T22:57:26.844Z,99.90
2018-05-26T23:00:30.391Z,99.90
2018-05-26T23:03:33.487Z,99.90
2018-05-26T23:06:37.342Z,99.90
2018-05-26T23:09:40.437Z,99.90
2018-05-26T23:12:43.508Z,99.90
2018-05-26T23:15:46.613Z,99.90
2018-05-26T23:18:49.695Z,99.90
2018-05-26T23:21:52.842Z,99.90
2018-05-26T23:24:56.676Z,99.90
2018-05-26T23:27:59.784Z,99.90
2018-05-26T23:31:02.843Z,99.90
2018-05-26T23:34:05.961Z,99.90
2018-05-26T23:37:09.020Z,99.90
2018-05-26T23:40:12.120Z,99.90
2018-05-26T23:43:15.197Z,99.90
2018-05-26T23:46:18.312Z,99.90
2018-05-26T23:49:21.391Z,99.90
2018-05-26T23:52:24.487Z,99.90
2018-05-26T23:55:27.568Z,99.90
2018-05-26T23:58:30.832Z,99.90
